sensor_id;sensor_type;location;lat;lon;timestamp;noise_LAeq;noise_LA_min;noise_LA_max;noise_LA01;noise_LA95
77133;Laerm;26708;50.304;19.028;2023-02-01T00:01:36;43.47;38.71;58.06;;
77133;Laerm;26708;50.304;19.028;2023-02-01T00:03:44;42.04;38.60;58.42;;
77133;Laerm;26708;50.304;19.028;2023-02-01T00:05:56;43.65;39.22;56.64;;
77133;Laerm;26708;50.304;19.028;2023-02-01T00:08:05;44.94;39.56;58.13;;
77133;Laerm;26708;50.304;19.028;2023-02-01T00:10:11;41.63;37.91;59.54;;
77133;Laerm;26708;50.304;19.028;2023-02-01T00:12:15;42.49;38.34;58.91;;
77133;Laerm;26708;50.304;19.028;2023-02-01T00:14:21;42.21;38.79;59.83;;
77133;Laerm;26708;50.304;19.028;2023-02-01T00:16:28;41.05;38.14;59.87;;
77133;Laerm;26708;50.304;19.028;2023-02-01T00:18:33;42.86;37.93;59.22;;
77133;Laerm;26708;50.304;19.028;2023-02-01T00:20:39;42.08;38.07;60.54;;
77133;Laerm;26708;50.304;19.028;2023-02-01T00:22:49;40.60;37.93;54.12;;
77133;Laerm;26708;50.304;19.028;2023-02-01T00:24:56;41.71;38.06;57.91;;
77133;Laerm;26708;50.304;19.028;2023-02-01T00:27:02;42.65;38.26;59.01;;
77133;Laerm;26708;50.304;19.028;2023-02-01T00:29:11;44.09;38.80;57.63;;
77133;Laerm;26708;50.304;19.028;2023-02-01T00:31:16;40.71;37.55;54.98;;
77133;Laerm;26708;50.304;19.028;2023-02-01T00:33:22;41.10;37.99;52.57;;
77133;Laerm;26708;50.304;19.028;2023-02-01T00:35:27;44.03;38.06;59.51;;
77133;Laerm;26708;50.304;19.028;2023-02-01T00:37:33;49.33;38.20;65.03;;
77133;Laerm;26708;50.304;19.028;2023-02-01T00:39:39;41.27;37.69;56.81;;
77133;Laerm;26708;50.304;19.028;2023-02-01T00:41:46;40.44;37.72;52.38;;
77133;Laerm;26708;50.304;19.028;2023-02-01T00:43:52;41.06;38.10;55.32;;
77133;Laerm;26708;50.304;19.028;2023-02-01T00:46:20;42.13;38.05;51.81;;
77133;Laerm;26708;50.304;19.028;2023-02-01T00:48:29;41.36;38.32;51.17;;
77133;Laerm;26708;50.304;19.028;2023-02-01T00:50:35;42.79;39.18;59.06;;
77133;Laerm;26708;50.304;19.028;2023-02-01T00:52:41;53.82;39.19;72.41;;
77133;Laerm;26708;50.304;19.028;2023-02-01T00:54:46;46.71;40.60;60.70;;
77133;Laerm;26708;50.304;19.028;2023-02-01T00:56:55;48.12;41.30;64.99;;
77133;Laerm;26708;50.304;19.028;2023-02-01T00:59:01;50.70;44.03;66.31;;
77133;Laerm;26708;50.304;19.028;2023-02-01T01:01:10;50.62;42.44;69.78;;
77133;Laerm;26708;50.304;19.028;2023-02-01T01:03:15;49.83;42.78;66.06;;
77133;Laerm;26708;50.304;19.028;2023-02-01T01:05:24;50.51;42.17;64.75;;
77133;Laerm;26708;50.304;19.028;2023-02-01T01:07:29;49.85;41.55;67.16;;
77133;Laerm;26708;50.304;19.028;2023-02-01T01:09:35;49.21;41.38;66.64;;
77133;Laerm;26708;50.304;19.028;2023-02-01T01:11:42;48.44;40.83;70.84;;
77133;Laerm;26708;50.304;19.028;2023-02-01T01:13:52;47.53;40.56;66.87;;
77133;Laerm;26708;50.304;19.028;2023-02-01T01:16:07;47.58;41.33;63.52;;
77133;Laerm;26708;50.304;19.028;2023-02-01T01:18:14;46.09;40.89;61.09;;
77133;Laerm;26708;50.304;19.028;2023-02-01T01:20:19;55.63;40.38;72.26;;
77133;Laerm;26708;50.304;19.028;2023-02-01T01:22:25;46.85;40.73;61.40;;
77133;Laerm;26708;50.304;19.028;2023-02-01T01:24:31;45.16;40.07;59.39;;
77133;Laerm;26708;50.304;19.028;2023-02-01T01:26:35;44.61;39.46;61.60;;
77133;Laerm;26708;50.304;19.028;2023-02-01T01:28:42;44.88;40.17;59.86;;
77133;Laerm;26708;50.304;19.028;2023-02-01T01:30:52;43.95;39.53;59.72;;
77133;Laerm;26708;50.304;19.028;2023-02-01T01:32:57;46.04;40.03;64.56;;
77133;Laerm;26708;50.304;19.028;2023-02-01T01:35:02;48.47;42.26;61.97;;
77133;Laerm;26708;50.304;19.028;2023-02-01T01:37:08;45.91;40.85;60.53;;
77133;Laerm;26708;50.304;19.028;2023-02-01T01:39:13;50.38;41.76;60.64;;
77133;Laerm;26708;50.304;19.028;2023-02-01T01:41:22;50.53;42.81;59.98;;
77133;Laerm;26708;50.304;19.028;2023-02-01T01:43:49;49.16;41.19;61.62;;
77133;Laerm;26708;50.304;19.028;2023-02-01T01:45:57;47.22;40.25;59.22;;
77133;Laerm;26708;50.304;19.028;2023-02-01T01:48:10;46.12;40.99;62.07;;
77133;Laerm;26708;50.304;19.028;2023-02-01T01:50:28;45.66;40.16;58.27;;
77133;Laerm;26708;50.304;19.028;2023-02-01T01:52:39;46.73;40.29;59.40;;
77133;Laerm;26708;50.304;19.028;2023-02-01T01:54:51;45.40;40.61;58.24;;
77133;Laerm;26708;50.304;19.028;2023-02-01T01:57:08;44.60;40.32;60.23;;
77133;Laerm;26708;50.304;19.028;2023-02-01T01:59:14;44.45;38.86;58.53;;
77133;Laerm;26708;50.304;19.028;2023-02-01T02:01:23;52.49;39.49;68.80;;
77133;Laerm;26708;50.304;19.028;2023-02-01T02:03:35;44.94;39.57;60.12;;
77133;Laerm;26708;50.304;19.028;2023-02-01T02:05:43;50.83;40.69;67.49;;
77133;Laerm;26708;50.304;19.028;2023-02-01T02:07:53;42.77;39.08;61.84;;
77133;Laerm;26708;50.304;19.028;2023-02-01T02:10:06;43.55;39.21;58.68;;
77133;Laerm;26708;50.304;19.028;2023-02-01T02:12:12;44.24;38.98;59.36;;
77133;Laerm;26708;50.304;19.028;2023-02-01T02:14:23;43.15;38.93;60.89;;
77133;Laerm;26708;50.304;19.028;2023-02-01T02:16:58;44.17;38.62;61.77;;
77133;Laerm;26708;50.304;19.028;2023-02-01T02:19:48;44.28;38.84;58.61;;
77133;Laerm;26708;50.304;19.028;2023-02-01T02:22:41;42.64;38.86;60.47;;
77133;Laerm;26708;50.304;19.028;2023-02-01T02:28:01;41.86;38.03;60.44;;
77133;Laerm;26708;50.304;19.028;2023-02-01T02:30:51;52.46;38.01;71.89;;
77133;Laerm;26708;50.304;19.028;2023-02-01T02:36:38;42.27;38.50;59.26;;
77133;Laerm;26708;50.304;19.028;2023-02-01T02:39:00;41.25;38.37;59.47;;
77133;Laerm;26708;50.304;19.028;2023-02-01T02:41:17;41.42;38.31;59.12;;
77133;Laerm;26708;50.304;19.028;2023-02-01T02:43:48;42.26;38.22;54.33;;
77133;Laerm;26708;50.304;19.028;2023-02-01T02:46:23;44.81;37.72;71.13;;
77133;Laerm;26708;50.304;19.028;2023-02-01T02:48:51;52.23;39.91;68.01;;
77133;Laerm;26708;50.304;19.028;2023-02-01T02:51:06;43.29;38.76;51.80;;
77133;Laerm;26708;50.304;19.028;2023-02-01T02:53:37;43.62;38.74;54.60;;
77133;Laerm;26708;50.304;19.028;2023-02-01T02:55:59;50.83;38.87;66.73;;
77133;Laerm;26708;50.304;19.028;2023-02-01T02:58:17;45.13;38.84;60.44;;
77133;Laerm;26708;50.304;19.028;2023-02-01T03:00:37;43.81;39.05;60.66;;
77133;Laerm;26708;50.304;19.028;2023-02-01T03:05:53;42.94;38.68;62.19;;
77133;Laerm;26708;50.304;19.028;2023-02-01T03:08:10;43.19;38.42;61.32;;
77133;Laerm;26708;50.304;19.028;2023-02-01T03:10:32;49.10;38.39;65.59;;
77133;Laerm;26708;50.304;19.028;2023-02-01T03:12:44;42.26;37.99;57.40;;
77133;Laerm;26708;50.304;19.028;2023-02-01T03:15:09;44.19;38.32;61.01;;
77133;Laerm;26708;50.304;19.028;2023-02-01T03:17:30;43.06;38.72;61.78;;
77133;Laerm;26708;50.304;19.028;2023-02-01T03:19:44;54.56;38.98;72.18;;
77133;Laerm;26708;50.304;19.028;2023-02-01T03:21:58;43.66;38.80;60.41;;
77133;Laerm;26708;50.304;19.028;2023-02-01T03:24:14;43.42;38.29;59.86;;
77133;Laerm;26708;50.304;19.028;2023-02-01T03:26:29;55.65;38.85;75.86;;
77133;Laerm;26708;50.304;19.028;2023-02-01T03:28:43;42.58;38.23;60.08;;
77133;Laerm;26708;50.304;19.028;2023-02-01T03:30:52;42.75;38.47;55.99;;
77133;Laerm;26708;50.304;19.028;2023-02-01T03:33:04;43.56;39.17;61.01;;
77133;Laerm;26708;50.304;19.028;2023-02-01T03:35:20;44.31;40.20;62.40;;
77133;Laerm;26708;50.304;19.028;2023-02-01T03:37:32;45.65;39.69;61.36;;
77133;Laerm;26708;50.304;19.028;2023-02-01T03:39:46;46.14;40.35;61.97;;
77133;Laerm;26708;50.304;19.028;2023-02-01T03:42:04;46.24;40.42;59.78;;
77133;Laerm;26708;50.304;19.028;2023-02-01T03:44:24;45.78;40.87;59.69;;
77133;Laerm;26708;50.304;19.028;2023-02-01T03:46:37;47.46;41.79;61.58;;
77133;Laerm;26708;50.304;19.028;2023-02-01T03:48:53;47.07;39.76;62.20;;
77133;Laerm;26708;50.304;19.028;2023-02-01T03:51:09;47.14;39.65;61.32;;
77133;Laerm;26708;50.304;19.028;2023-02-01T03:53:20;46.17;40.51;64.19;;
77133;Laerm;26708;50.304;19.028;2023-02-01T03:55:31;45.87;39.78;60.97;;
77133;Laerm;26708;50.304;19.028;2023-02-01T03:57:46;47.73;42.03;61.20;;
77133;Laerm;26708;50.304;19.028;2023-02-01T04:00:07;52.16;41.45;68.49;;
77133;Laerm;26708;50.304;19.028;2023-02-01T04:02:18;46.32;40.18;58.77;;
77133;Laerm;26708;50.304;19.028;2023-02-01T04:04:23;52.10;40.74;68.77;;
77133;Laerm;26708;50.304;19.028;2023-02-01T04:06:31;56.31;40.43;72.85;;
77133;Laerm;26708;50.304;19.028;2023-02-01T04:08:41;53.23;40.19;71.30;;
77133;Laerm;26708;50.304;19.028;2023-02-01T04:10:46;49.60;40.41;64.94;;
77133;Laerm;26708;50.304;19.028;2023-02-01T04:12:53;46.84;39.63;60.46;;
77133;Laerm;26708;50.304;19.028;2023-02-01T04:14:59;45.59;40.58;58.18;;
77133;Laerm;26708;50.304;19.028;2023-02-01T04:17:07;44.00;39.57;56.29;;
77133;Laerm;26708;50.304;19.028;2023-02-01T04:19:14;45.98;40.02;58.87;;
77133;Laerm;26708;50.304;19.028;2023-02-01T04:21:20;50.53;41.28;65.74;;
77133;Laerm;26708;50.304;19.028;2023-02-01T04:23:25;45.96;41.20;55.57;;
77133;Laerm;26708;50.304;19.028;2023-02-01T04:25:30;44.51;40.94;57.28;;
77133;Laerm;26708;50.304;19.028;2023-02-01T04:27:37;45.12;40.37;59.60;;
77133;Laerm;26708;50.304;19.028;2023-02-01T04:29:44;52.83;41.47;71.21;;
77133;Laerm;26708;50.304;19.028;2023-02-01T04:31:51;47.54;41.96;58.80;;
77133;Laerm;26708;50.304;19.028;2023-02-01T04:33:56;55.66;43.09;69.62;;
77133;Laerm;26708;50.304;19.028;2023-02-01T04:36:01;52.62;42.31;69.13;;
77133;Laerm;26708;50.304;19.028;2023-02-01T04:38:06;48.03;43.40;53.16;;
77133;Laerm;26708;50.304;19.028;2023-02-01T04:40:14;56.01;42.29;71.60;;
77133;Laerm;26708;50.304;19.028;2023-02-01T04:42:19;47.22;42.72;59.98;;
77133;Laerm;26708;50.304;19.028;2023-02-01T04:50:48;53.53;41.83;70.86;;
77133;Laerm;26708;50.304;19.028;2023-02-01T04:53:49;51.68;40.37;70.61;;
77133;Laerm;26708;50.304;19.028;2023-02-01T04:56:10;49.60;40.46;64.27;;
77133;Laerm;26708;50.304;19.028;2023-02-01T04:58:33;55.56;40.09;71.60;;
77133;Laerm;26708;50.304;19.028;2023-02-01T05:01:19;52.57;40.41;70.93;;
77133;Laerm;26708;50.304;19.028;2023-02-01T05:03:42;51.66;41.29;70.06;;
77133;Laerm;26708;50.304;19.028;2023-02-01T05:06:38;55.94;42.34;74.27;;
77133;Laerm;26708;50.304;19.028;2023-02-01T05:09:22;53.11;40.64;67.87;;
77133;Laerm;26708;50.304;19.028;2023-02-01T05:11:39;50.57;41.34;63.01;;
77133;Laerm;26708;50.304;19.028;2023-02-01T05:14:23;53.26;41.61;67.89;;
77133;Laerm;26708;50.304;19.028;2023-02-01T05:21:59;54.34;42.53;67.11;;
77133;Laerm;26708;50.304;19.028;2023-02-01T05:24:37;54.47;42.82;66.69;;
77133;Laerm;26708;50.304;19.028;2023-02-01T05:27:20;56.31;42.65;70.26;;
77133;Laerm;26708;50.304;19.028;2023-02-01T05:29:38;55.48;43.94;68.37;;
77133;Laerm;26708;50.304;19.028;2023-02-01T05:41:12;57.40;43.52;72.09;;
77133;Laerm;26708;50.304;19.028;2023-02-01T05:43:52;53.25;43.87;68.51;;
77133;Laerm;26708;50.304;19.028;2023-02-01T05:46:08;56.52;44.96;67.40;;
77133;Laerm;26708;50.304;19.028;2023-02-01T05:54:35;55.78;44.97;70.95;;
77133;Laerm;26708;50.304;19.028;2023-02-01T12:12:38;59.33;43.86;70.46;;
77133;Laerm;26708;50.304;19.028;2023-02-01T16:34:29;59.10;46.52;71.24;;
77133;Laerm;26708;50.304;19.028;2023-02-01T17:02:53;56.60;42.44;68.74;;
77133;Laerm;26708;50.304;19.028;2023-02-01T17:44:46;61.15;44.64;77.19;;
77133;Laerm;26708;50.304;19.028;2023-02-01T17:46:52;58.77;46.83;72.25;;
77133;Laerm;26708;50.304;19.028;2023-02-01T17:49:06;58.23;46.26;70.18;;
77133;Laerm;26708;50.304;19.028;2023-02-01T17:56:50;58.36;45.25;76.48;;
77133;Laerm;26708;50.304;19.028;2023-02-01T17:59:20;56.70;44.39;72.77;;
77133;Laerm;26708;50.304;19.028;2023-02-01T18:08:12;59.23;45.85;73.00;;
77133;Laerm;26708;50.304;19.028;2023-02-01T18:10:36;61.30;44.66;73.87;;
77133;Laerm;26708;50.304;19.028;2023-02-01T18:33:16;53.68;41.95;70.31;;
77133;Laerm;26708;50.304;19.028;2023-02-01T18:41:45;56.12;43.80;70.95;;
77133;Laerm;26708;50.304;19.028;2023-02-01T19:10:37;50.96;40.89;64.64;;
77133;Laerm;26708;50.304;19.028;2023-02-01T19:13:12;57.62;41.44;69.81;;
77133;Laerm;26708;50.304;19.028;2023-02-01T19:21:39;56.86;44.27;70.55;;
77133;Laerm;26708;50.304;19.028;2023-02-01T19:27:39;54.21;43.76;69.83;;
77133;Laerm;26708;50.304;19.028;2023-02-01T19:32:59;56.85;41.45;71.29;;
77133;Laerm;26708;50.304;19.028;2023-02-01T19:35:07;56.99;43.99;70.37;;
77133;Laerm;26708;50.304;19.028;2023-02-01T19:37:16;55.77;44.01;70.44;;
77133;Laerm;26708;50.304;19.028;2023-02-01T19:39:22;55.24;42.48;71.91;;
77133;Laerm;26708;50.304;19.028;2023-02-01T19:41:26;58.37;43.10;73.05;;
77133;Laerm;26708;50.304;19.028;2023-02-01T19:43:52;55.46;41.06;74.99;;
77133;Laerm;26708;50.304;19.028;2023-02-01T19:49:03;60.87;46.45;78.08;;
77133;Laerm;26708;50.304;19.028;2023-02-01T19:51:24;56.16;41.18;75.47;;
77133;Laerm;26708;50.304;19.028;2023-02-01T19:53:46;51.33;40.50;65.47;;
77133;Laerm;26708;50.304;19.028;2023-02-01T19:56:03;55.77;41.76;69.61;;
77133;Laerm;26708;50.304;19.028;2023-02-01T19:58:11;54.44;40.97;69.48;;
77133;Laerm;26708;50.304;19.028;2023-02-01T20:00:18;46.35;40.84;56.24;;
77133;Laerm;26708;50.304;19.028;2023-02-01T20:14:30;53.65;42.59;68.03;;
77133;Laerm;26708;50.304;19.028;2023-02-01T20:16:42;52.32;41.87;67.50;;
77133;Laerm;26708;50.304;19.028;2023-02-01T20:36:39;46.66;40.83;58.21;;
77133;Laerm;26708;50.304;19.028;2023-02-01T20:38:45;52.07;40.29;68.09;;
77133;Laerm;26708;50.304;19.028;2023-02-01T20:40:51;59.84;41.82;88.14;;
77133;Laerm;26708;50.304;19.028;2023-02-01T20:42:58;55.50;42.03;70.45;;
77133;Laerm;26708;50.304;19.028;2023-02-01T20:45:08;58.37;41.87;73.82;;
77133;Laerm;26708;50.304;19.028;2023-02-01T20:50:36;55.51;40.92;75.71;;
77133;Laerm;26708;50.304;19.028;2023-02-01T21:05:50;50.38;44.45;62.35;;
77133;Laerm;26708;50.304;19.028;2023-02-01T21:14:03;53.94;43.07;69.15;;
77133;Laerm;26708;50.304;19.028;2023-02-01T21:16:23;49.51;42.24;63.47;;
77133;Laerm;26708;50.304;19.028;2023-02-01T21:18:29;52.37;42.09;62.92;;
77133;Laerm;26708;50.304;19.028;2023-02-01T21:20:38;47.90;41.30;59.68;;
77133;Laerm;26708;50.304;19.028;2023-02-01T21:23:02;51.36;42.06;65.61;;
77133;Laerm;26708;50.304;19.028;2023-02-01T21:25:17;47.72;40.86;59.39;;
77133;Laerm;26708;50.304;19.028;2023-02-01T21:27:32;47.00;41.12;58.92;;
77133;Laerm;26708;50.304;19.028;2023-02-01T21:29:51;54.84;41.18;72.94;;
77133;Laerm;26708;50.304;19.028;2023-02-01T21:32:00;54.25;41.98;69.94;;
77133;Laerm;26708;50.304;19.028;2023-02-01T21:34:10;48.40;41.29;59.80;;
77133;Laerm;26708;50.304;19.028;2023-02-01T21:36:19;49.46;40.69;66.74;;
77133;Laerm;26708;50.304;19.028;2023-02-01T21:38:32;45.21;40.30;60.58;;
77133;Laerm;26708;50.304;19.028;2023-02-01T21:40:37;45.50;39.64;59.96;;
77133;Laerm;26708;50.304;19.028;2023-02-01T21:42:43;47.34;40.29;62.44;;
77133;Laerm;26708;50.304;19.028;2023-02-01T21:44:50;45.16;39.75;62.33;;
77133;Laerm;26708;50.304;19.028;2023-02-01T21:47:01;53.34;40.20;69.33;;
77133;Laerm;26708;50.304;19.028;2023-02-01T21:49:08;44.18;39.89;60.56;;
77133;Laerm;26708;50.304;19.028;2023-02-01T21:51:22;46.29;39.87;60.39;;
77133;Laerm;26708;50.304;19.028;2023-02-01T21:53:28;45.05;39.79;58.18;;
77133;Laerm;26708;50.304;19.028;2023-02-01T21:55:35;45.22;39.72;59.80;;
77133;Laerm;26708;50.304;19.028;2023-02-01T21:57:44;44.41;39.07;59.03;;
77133;Laerm;26708;50.304;19.028;2023-02-01T21:59:56;44.63;39.16;57.42;;
77133;Laerm;26708;50.304;19.028;2023-02-01T22:02:12;45.15;39.50;56.85;;
77133;Laerm;26708;50.304;19.028;2023-02-01T22:07:30;55.08;39.07;75.65;;
77133;Laerm;26708;50.304;19.028;2023-02-01T22:09:37;52.58;39.59;76.86;;
77133;Laerm;26708;50.304;19.028;2023-02-01T22:11:41;43.53;39.35;58.78;;
77133;Laerm;26708;50.304;19.028;2023-02-01T22:13:47;44.86;39.34;59.48;;
77133;Laerm;26708;50.304;19.028;2023-02-01T22:15:56;45.72;39.58;56.65;;
77133;Laerm;26708;50.304;19.028;2023-02-01T22:18:01;45.24;38.99;55.79;;
77133;Laerm;26708;50.304;19.028;2023-02-01T22:20:09;43.57;39.43;60.50;;
77133;Laerm;26708;50.304;19.028;2023-02-01T22:22:16;42.63;38.56;57.64;;
77133;Laerm;26708;50.304;19.028;2023-02-01T22:24:20;43.81;39.28;57.75;;
77133;Laerm;26708;50.304;19.028;2023-02-01T22:26:27;41.40;38.35;59.06;;
77133;Laerm;26708;50.304;19.028;2023-02-01T22:28:37;41.97;37.89;53.70;;
77133;Laerm;26708;50.304;19.028;2023-02-01T22:30:45;41.40;38.83;56.09;;
77133;Laerm;26708;50.304;19.028;2023-02-01T22:32:53;42.25;38.87;58.13;;
77133;Laerm;26708;50.304;19.028;2023-02-01T22:34:58;53.90;38.97;72.41;;
77133;Laerm;26708;50.304;19.028;2023-02-01T22:37:05;43.32;38.39;55.26;;
77133;Laerm;26708;50.304;19.028;2023-02-01T22:39:10;42.88;38.19;53.78;;
77133;Laerm;26708;50.304;19.028;2023-02-01T22:41:16;47.30;39.05;65.06;;
77133;Laerm;26708;50.304;19.028;2023-02-01T22:43:21;47.02;38.43;64.84;;
77133;Laerm;26708;50.304;19.028;2023-02-01T22:45:36;43.68;38.75;62.06;;
77133;Laerm;26708;50.304;19.028;2023-02-01T22:47:50;45.78;40.06;58.81;;
77133;Laerm;26708;50.304;19.028;2023-02-01T22:49:57;43.11;39.46;60.39;;
77133;Laerm;26708;50.304;19.028;2023-02-01T22:52:02;43.50;39.37;58.31;;
77133;Laerm;26708;50.304;19.028;2023-02-01T22:54:16;47.10;40.98;61.19;;
77133;Laerm;26708;50.304;19.028;2023-02-01T22:56:28;48.46;42.72;63.52;;
77133;Laerm;26708;50.304;19.028;2023-02-01T22:58:36;47.76;41.70;61.81;;
77133;Laerm;26708;50.304;19.028;2023-02-01T23:00:44;49.46;42.00;61.63;;
77133;Laerm;26708;50.304;19.028;2023-02-01T23:03:14;48.61;41.43;62.62;;
77133;Laerm;26708;50.304;19.028;2023-02-01T23:05:22;48.01;41.41;61.36;;
77133;Laerm;26708;50.304;19.028;2023-02-01T23:07:28;49.65;42.36;61.24;;
77133;Laerm;26708;50.304;19.028;2023-02-01T23:09:37;50.69;42.49;64.38;;
77133;Laerm;26708;50.304;19.028;2023-02-01T23:11:44;51.47;43.03;68.57;;
77133;Laerm;26708;50.304;19.028;2023-02-01T23:13:51;51.33;43.70;63.68;;
77133;Laerm;26708;50.304;19.028;2023-02-01T23:16:03;51.48;43.30;66.13;;
77133;Laerm;26708;50.304;19.028;2023-02-01T23:21:07;56.15;42.63;72.62;;
77133;Laerm;26708;50.304;19.028;2023-02-01T23:23:13;49.16;41.58;61.96;;
77133;Laerm;26708;50.304;19.028;2023-02-01T23:25:18;47.68;40.26;63.33;;
77133;Laerm;26708;50.304;19.028;2023-02-01T23:27:26;44.69;39.85;59.95;;
77133;Laerm;26708;50.304;19.028;2023-02-01T23:30:22;45.34;40.12;60.63;;
77133;Laerm;26708;50.304;19.028;2023-02-01T23:32:48;42.53;38.98;60.13;;
77133;Laerm;26708;50.304;19.028;2023-02-01T23:34:59;41.87;38.66;57.91;;
77133;Laerm;26708;50.304;19.028;2023-02-01T23:37:11;57.62;39.57;74.82;;
77133;Laerm;26708;50.304;19.028;2023-02-01T23:39:18;42.49;38.66;53.58;;
77133;Laerm;26708;50.304;19.028;2023-02-01T23:41:32;41.02;37.99;51.85;;
77133;Laerm;26708;50.304;19.028;2023-02-01T23:43:46;55.53;37.85;71.87;;
